sensor_id;sensor_type;location;lat;lon;timestamp;temperature;humidity
34989;DHT22;21192;40.182;44.516;2023-02-15T00:00:22;0.20;56.70
34989;DHT22;21192;40.182;44.516;2023-02-15T00:02:48;0.30;56.70
34989;DHT22;21192;40.182;44.516;2023-02-15T00:05:13;0.30;56.50
34989;DHT22;21192;40.182;44.516;2023-02-15T00:07:39;0.30;56.40
34989;DHT22;21192;40.182;44.516;2023-02-15T00:10:07;0.30;56.30
34989;DHT22;21192;40.182;44.516;2023-02-15T00:12:33;0.30;55.90
34989;DHT22;21192;40.182;44.516;2023-02-15T01:29:24;0.00;50.00
34989;DHT22;21192;40.182;44.516;2023-02-15T01:31:50;0.00;50.00
34989;DHT22;21192;40.182;44.516;2023-02-15T01:34:41;0.00;50.00
34989;DHT22;21192;40.182;44.516;2023-02-15T01:37:06;-0.10;50.10
34989;DHT22;21192;40.182;44.516;2023-02-15T01:39:32;-0.20;50.10
34989;DHT22;21192;40.182;44.516;2023-02-15T01:41:58;-0.30;50.10
34989;DHT22;21192;40.182;44.516;2023-02-15T01:47:10;-0.50;50.20
34989;DHT22;21192;40.182;44.516;2023-02-15T01:49:38;-0.50;50.30
34989;DHT22;21192;40.182;44.516;2023-02-15T01:52:10;-0.50;50.30
34989;DHT22;21192;40.182;44.516;2023-02-15T01:54:39;-0.50;50.30
34989;DHT22;21192;40.182;44.516;2023-02-15T01:57:12;-0.50;50.30
34989;DHT22;21192;40.182;44.516;2023-02-15T01:59:41;-0.40;50.20
34989;DHT22;21192;40.182;44.516;2023-02-15T02:02:09;-0.40;50.10
34989;DHT22;21192;40.182;44.516;2023-02-15T02:04:47;-0.40;50.00
34989;DHT22;21192;40.182;44.516;2023-02-15T02:07:16;-0.30;49.90
34989;DHT22;21192;40.182;44.516;2023-02-15T02:09:44;-0.20;49.80
34989;DHT22;21192;40.182;44.516;2023-02-15T02:12:10;-0.10;49.70
34989;DHT22;21192;40.182;44.516;2023-02-15T02:14:36;0.00;49.50
34989;DHT22;21192;40.182;44.516;2023-02-15T02:39:22;-0.30;50.70
34989;DHT22;21192;40.182;44.516;2023-02-15T02:42:06;-0.30;50.60
34989;DHT22;21192;40.182;44.516;2023-02-15T02:44:40;-0.40;50.40
34989;DHT22;21192;40.182;44.516;2023-02-15T02:47:26;-0.40;50.30
34989;DHT22;21192;40.182;44.516;2023-02-15T02:50:00;-0.40;50.20
34989;DHT22;21192;40.182;44.516;2023-02-15T02:52:37;-0.40;50.10
34989;DHT22;21192;40.182;44.516;2023-02-15T02:55:23;-0.50;50.00
34989;DHT22;21192;40.182;44.516;2023-02-15T02:58:20;-0.40;50.60
34989;DHT22;21192;40.182;44.516;2023-02-15T03:00:57;-0.30;49.90
34989;DHT22;21192;40.182;44.516;2023-02-15T03:03:32;-0.30;49.70
34989;DHT22;21192;40.182;44.516;2023-02-15T03:06:02;-0.20;49.70
34989;DHT22;21192;40.182;44.516;2023-02-15T03:08:37;-0.30;49.70
34989;DHT22;21192;40.182;44.516;2023-02-15T03:11:04;-0.20;49.70
34989;DHT22;21192;40.182;44.516;2023-02-15T03:13:30;-0.20;49.70
34989;DHT22;21192;40.182;44.516;2023-02-15T03:15:58;-0.20;49.70
34989;DHT22;21192;40.182;44.516;2023-02-15T03:18:51;-0.10;49.60
34989;DHT22;21192;40.182;44.516;2023-02-15T03:21:26;-0.10;49.70
34989;DHT22;21192;40.182;44.516;2023-02-15T03:23:57;-0.30;51.20
34989;DHT22;21192;40.182;44.516;2023-02-15T03:26:25;-0.50;53.10
34989;DHT22;21192;40.182;44.516;2023-02-15T03:28:55;-0.60;54.40
34989;DHT22;21192;40.182;44.516;2023-02-15T03:31:25;-0.70;55.30
34989;DHT22;21192;40.182;44.516;2023-02-15T03:34:02;-0.90;56.10
34989;DHT22;21192;40.182;44.516;2023-02-15T03:36:45;-1.00;57.10
34989;DHT22;21192;40.182;44.516;2023-02-15T03:42:22;-1.30;58.50
34989;DHT22;21192;40.182;44.516;2023-02-15T03:45:05;-1.20;59.30
34989;DHT22;21192;40.182;44.516;2023-02-15T03:47:38;-1.20;58.70
34989;DHT22;21192;40.182;44.516;2023-02-15T03:53:00;-1.20;58.70
34989;DHT22;21192;40.182;44.516;2023-02-15T03:55:28;-1.20;58.80
34989;DHT22;21192;40.182;44.516;2023-02-15T03:57:54;-1.20;58.80
34989;DHT22;21192;40.182;44.516;2023-02-15T04:00:46;-1.20;58.80
34989;DHT22;21192;40.182;44.516;2023-02-15T04:03:39;-1.10;58.90
34989;DHT22;21192;40.182;44.516;2023-02-15T04:06:06;-1.10;59.00
34989;DHT22;21192;40.182;44.516;2023-02-15T04:08:32;-1.00;59.00
34989;DHT22;21192;40.182;44.516;2023-02-15T04:11:16;-0.90;58.90
34989;DHT22;21192;40.182;44.516;2023-02-15T04:13:42;-0.70;58.80
34989;DHT22;21192;40.182;44.516;2023-02-15T04:16:08;-0.50;58.50
34989;DHT22;21192;40.182;44.516;2023-02-15T04:18:36;-0.30;58.20
34989;DHT22;21192;40.182;44.516;2023-02-15T04:21:22;-0.10;58.10
34989;DHT22;21192;40.182;44.516;2023-02-15T04:24:07;0.00;57.90
34989;DHT22;21192;40.182;44.516;2023-02-15T04:26:51;0.10;57.90
34989;DHT22;21192;40.182;44.516;2023-02-15T04:29:22;0.90;57.90
34989;DHT22;21192;40.182;44.516;2023-02-15T04:31:48;1.50;57.20
34989;DHT22;21192;40.182;44.516;2023-02-15T04:34:14;2.10;56.60
34989;DHT22;21192;40.182;44.516;2023-02-15T04:36:40;2.80;55.80
34989;DHT22;21192;40.182;44.516;2023-02-15T04:39:07;4.10;54.80
34989;DHT22;21192;40.182;44.516;2023-02-15T04:41:34;5.70;53.50
34989;DHT22;21192;40.182;44.516;2023-02-15T04:44:00;7.30;50.20
34989;DHT22;21192;40.182;44.516;2023-02-15T04:46:27;8.70;47.40
34989;DHT22;21192;40.182;44.516;2023-02-15T04:48:53;8.60;44.60
34989;DHT22;21192;40.182;44.516;2023-02-15T04:51:19;8.10;43.00
34989;DHT22;21192;40.182;44.516;2023-02-15T04:53:45;7.60;42.60
34989;DHT22;21192;40.182;44.516;2023-02-15T04:56:11;7.50;42.60
34989;DHT22;21192;40.182;44.516;2023-02-15T04:58:37;7.50;42.40
34989;DHT22;21192;40.182;44.516;2023-02-15T05:01:07;8.00;42.20
34989;DHT22;21192;40.182;44.516;2023-02-15T05:03:34;8.90;41.60
34989;DHT22;21192;40.182;44.516;2023-02-15T05:05:59;9.90;40.60
34989;DHT22;21192;40.182;44.516;2023-02-15T05:08:25;10.60;39.40
34989;DHT22;21192;40.182;44.516;2023-02-15T05:10:51;11.40;38.10
34989;DHT22;21192;40.182;44.516;2023-02-15T05:13:17;11.60;37.10
34989;DHT22;21192;40.182;44.516;2023-02-15T05:15:50;11.40;37.50
34989;DHT22;21192;40.182;44.516;2023-02-15T05:18:17;11.30;38.30
34989;DHT22;21192;40.182;44.516;2023-02-15T05:20:43;12.10;38.60
34989;DHT22;21192;40.182;44.516;2023-02-15T05:23:09;13.00;37.90
34989;DHT22;21192;40.182;44.516;2023-02-15T05:25:36;13.80;37.00
34989;DHT22;21192;40.182;44.516;2023-02-15T05:28:20;14.40;36.00
34989;DHT22;21192;40.182;44.516;2023-02-15T05:31:02;15.00;35.30
34989;DHT22;21192;40.182;44.516;2023-02-15T05:33:28;14.30;34.30
34989;DHT22;21192;40.182;44.516;2023-02-15T05:35:54;13.60;34.50
34989;DHT22;21192;40.182;44.516;2023-02-15T05:38:20;13.10;34.90
34989;DHT22;21192;40.182;44.516;2023-02-15T05:40:45;13.70;35.00
34989;DHT22;21192;40.182;44.516;2023-02-15T05:43:11;14.70;34.60
34989;DHT22;21192;40.182;44.516;2023-02-15T05:45:37;15.20;33.60
34989;DHT22;21192;40.182;44.516;2023-02-15T05:48:03;14.80;33.00
34989;DHT22;21192;40.182;44.516;2023-02-15T05:50:29;14.40;33.20
34989;DHT22;21192;40.182;44.516;2023-02-15T05:52:54;13.50;33.30
34989;DHT22;21192;40.182;44.516;2023-02-15T05:55:20;13.10;33.80
34989;DHT22;21192;40.182;44.516;2023-02-15T05:57:46;12.30;34.10
34989;DHT22;21192;40.182;44.516;2023-02-15T06:00:12;12.10;34.70
34989;DHT22;21192;40.182;44.516;2023-02-15T06:02:39;11.70;34.90
34989;DHT22;21192;40.182;44.516;2023-02-15T06:05:06;11.50;35.30
34989;DHT22;21192;40.182;44.516;2023-02-15T06:07:32;11.50;35.30
34989;DHT22;21192;40.182;44.516;2023-02-15T06:09:58;11.50;35.00
34989;DHT22;21192;40.182;44.516;2023-02-15T06:12:24;11.70;34.80
34989;DHT22;21192;40.182;44.516;2023-02-15T06:14:50;11.90;34.30
34989;DHT22;21192;40.182;44.516;2023-02-15T06:17:16;11.90;34.20
34989;DHT22;21192;40.182;44.516;2023-02-15T06:19:42;11.60;34.20
34989;DHT22;21192;40.182;44.516;2023-02-15T06:22:08;11.30;34.50
34989;DHT22;21192;40.182;44.516;2023-02-15T06:24:34;11.20;34.50
34989;DHT22;21192;40.182;44.516;2023-02-15T06:27:00;10.70;35.20
34989;DHT22;21192;40.182;44.516;2023-02-15T06:29:26;10.20;34.90
34989;DHT22;21192;40.182;44.516;2023-02-15T06:31:52;9.80;35.50
34989;DHT22;21192;40.182;44.516;2023-02-15T06:34:17;9.50;35.90
34989;DHT22;21192;40.182;44.516;2023-02-15T06:36:43;8.90;36.20
34989;DHT22;21192;40.182;44.516;2023-02-15T06:39:09;8.40;36.70
34989;DHT22;21192;40.182;44.516;2023-02-15T06:41:35;8.00;37.30
34989;DHT22;21192;40.182;44.516;2023-02-15T06:44:00;7.60;37.70
34989;DHT22;21192;40.182;44.516;2023-02-15T06:46:26;7.20;38.30
34989;DHT22;21192;40.182;44.516;2023-02-15T06:48:52;6.80;38.80
34989;DHT22;21192;40.182;44.516;2023-02-15T06:51:18;6.30;39.80
34989;DHT22;21192;40.182;44.516;2023-02-15T06:53:44;6.00;40.20
34989;DHT22;21192;40.182;44.516;2023-02-15T06:56:10;6.00;40.30
34989;DHT22;21192;40.182;44.516;2023-02-15T06:58:41;5.70;40.80
34989;DHT22;21192;40.182;44.516;2023-02-15T07:01:08;5.50;41.50
34989;DHT22;21192;40.182;44.516;2023-02-15T07:03:35;5.50;41.80
34989;DHT22;21192;40.182;44.516;2023-02-15T07:06:03;5.50;42.10
34989;DHT22;21192;40.182;44.516;2023-02-15T07:08:31;5.10;42.40
34989;DHT22;21192;40.182;44.516;2023-02-15T07:10:57;4.70;43.00
34989;DHT22;21192;40.182;44.516;2023-02-15T07:13:43;4.40;43.70
34989;DHT22;21192;40.182;44.516;2023-02-15T07:16:09;4.20;44.60
34989;DHT22;21192;40.182;44.516;2023-02-15T07:18:35;4.30;44.70
34989;DHT22;21192;40.182;44.516;2023-02-15T07:21:01;4.40;44.80
34989;DHT22;21192;40.182;44.516;2023-02-15T07:23:27;4.50;44.80
34989;DHT22;21192;40.182;44.516;2023-02-15T07:25:57;4.30;44.90
34989;DHT22;21192;40.182;44.516;2023-02-15T07:28:24;4.40;44.90
34989;DHT22;21192;40.182;44.516;2023-02-15T07:30:50;4.40;45.60
34989;DHT22;21192;40.182;44.516;2023-02-15T07:33:16;4.50;44.90
34989;DHT22;21192;40.182;44.516;2023-02-15T07:35:49;4.20;45.00
34989;DHT22;21192;40.182;44.516;2023-02-15T07:38:16;4.10;45.30
34989;DHT22;21192;40.182;44.516;2023-02-15T07:40:42;3.90;45.60
34989;DHT22;21192;40.182;44.516;2023-02-15T07:43:08;3.90;45.70
34989;DHT22;21192;40.182;44.516;2023-02-15T07:45:34;4.00;45.70
34989;DHT22;21192;40.182;44.516;2023-02-15T07:48:01;4.10;45.60
34989;DHT22;21192;40.182;44.516;2023-02-15T07:50:27;3.90;45.80
34989;DHT22;21192;40.182;44.516;2023-02-15T07:52:53;3.90;46.00
34989;DHT22;21192;40.182;44.516;2023-02-15T07:55:19;4.10;46.00
34989;DHT22;21192;40.182;44.516;2023-02-15T07:57:46;3.90;46.20
34989;DHT22;21192;40.182;44.516;2023-02-15T08:00:14;3.90;46.30
34989;DHT22;21192;40.182;44.516;2023-02-15T08:02:41;4.00;46.30
34989;DHT22;21192;40.182;44.516;2023-02-15T08:05:07;4.00;46.30
34989;DHT22;21192;40.182;44.516;2023-02-15T08:07:33;4.20;46.20
34989;DHT22;21192;40.182;44.516;2023-02-15T08:09:59;4.20;46.00
34989;DHT22;21192;40.182;44.516;2023-02-15T08:12:28;4.20;46.10
34989;DHT22;21192;40.182;44.516;2023-02-15T08:14:53;4.20;46.40
34989;DHT22;21192;40.182;44.516;2023-02-15T08:17:19;4.00;46.40
34989;DHT22;21192;40.182;44.516;2023-02-15T08:19:45;4.10;46.60
34989;DHT22;21192;40.182;44.516;2023-02-15T08:22:13;4.00;46.70
34989;DHT22;21192;40.182;44.516;2023-02-15T08:24:39;3.80;46.90
34989;DHT22;21192;40.182;44.516;2023-02-15T08:27:07;3.80;46.90
34989;DHT22;21192;40.182;44.516;2023-02-15T08:29:35;3.70;47.00
34989;DHT22;21192;40.182;44.516;2023-02-15T08:32:04;3.70;47.10
34989;DHT22;21192;40.182;44.516;2023-02-15T08:34:33;3.90;47.20
34989;DHT22;21192;40.182;44.516;2023-02-15T08:36:59;4.10;47.00
34989;DHT22;21192;40.182;44.516;2023-02-15T08:39:26;4.10;46.70
34989;DHT22;21192;40.182;44.516;2023-02-15T08:41:52;4.10;46.60
34989;DHT22;21192;40.182;44.516;2023-02-15T08:44:19;4.00;46.60
34989;DHT22;21192;40.182;44.516;2023-02-15T08:46:46;4.00;46.60
34989;DHT22;21192;40.182;44.516;2023-02-15T08:49:16;4.20;46.50
34989;DHT22;21192;40.182;44.516;2023-02-15T08:51:42;4.20;46.70
34989;DHT22;21192;40.182;44.516;2023-02-15T08:54:11;4.30;46.50
34989;DHT22;21192;40.182;44.516;2023-02-15T08:56:40;4.10;46.30
34989;DHT22;21192;40.182;44.516;2023-02-15T08:59:07;4.20;46.30
34989;DHT22;21192;40.182;44.516;2023-02-15T09:01:37;4.40;46.20
34989;DHT22;21192;40.182;44.516;2023-02-15T09:04:06;4.40;46.00
34989;DHT22;21192;40.182;44.516;2023-02-15T09:06:40;4.40;45.90
34989;DHT22;21192;40.182;44.516;2023-02-15T09:09:07;4.50;45.90
34989;DHT22;21192;40.182;44.516;2023-02-15T09:11:38;4.40;45.80
34989;DHT22;21192;40.182;44.516;2023-02-15T09:14:07;4.30;45.80
34989;DHT22;21192;40.182;44.516;2023-02-15T09:16:35;4.20;45.70
34989;DHT22;21192;40.182;44.516;2023-02-15T09:19:02;3.90;45.80
34989;DHT22;21192;40.182;44.516;2023-02-15T09:21:31;3.70;46.10
34989;DHT22;21192;40.182;44.516;2023-02-15T09:23:59;3.80;46.30
34989;DHT22;21192;40.182;44.516;2023-02-15T09:26:27;3.90;46.20
34989;DHT22;21192;40.182;44.516;2023-02-15T09:28:56;3.70;46.50
34989;DHT22;21192;40.182;44.516;2023-02-15T09:31:24;3.80;47.20
34989;DHT22;21192;40.182;44.516;2023-02-15T09:33:51;3.90;47.80
34989;DHT22;21192;40.182;44.516;2023-02-15T09:36:19;3.90;48.30
34989;DHT22;21192;40.182;44.516;2023-02-15T09:38:50;3.90;48.90
34989;DHT22;21192;40.182;44.516;2023-02-15T09:44:35;3.70;50.00
34989;DHT22;21192;40.182;44.516;2023-02-15T09:55:53;3.40;51.90
34989;DHT22;21192;40.182;44.516;2023-02-15T10:04:01;3.50;53.70
34989;DHT22;21192;40.182;44.516;2023-02-15T10:12:07;3.90;54.70
34989;DHT22;21192;40.182;44.516;2023-02-15T10:20:28;4.00;56.40
34989;DHT22;21192;40.182;44.516;2023-02-15T10:25:46;3.90;57.50
34989;DHT22;21192;40.182;44.516;2023-02-15T10:28:23;3.70;58.50
34989;DHT22;21192;40.182;44.516;2023-02-15T10:31:03;3.60;59.60
34989;DHT22;21192;40.182;44.516;2023-02-15T10:33:42;3.70;60.10
34989;DHT22;21192;40.182;44.516;2023-02-15T10:38:45;3.70;61.50
34989;DHT22;21192;40.182;44.516;2023-02-15T10:44:11;3.80;62.30
34989;DHT22;21192;40.182;44.516;2023-02-15T10:52:37;4.00;63.50
34989;DHT22;21192;40.182;44.516;2023-02-15T11:06:49;4.70;63.00
34989;DHT22;21192;40.182;44.516;2023-02-15T11:09:19;4.60;63.00
34989;DHT22;21192;40.182;44.516;2023-02-15T11:11:52;4.40;63.50
34989;DHT22;21192;40.182;44.516;2023-02-15T11:14:46;4.40;63.90
34989;DHT22;21192;40.182;44.516;2023-02-15T11:17:19;4.40;64.20
34989;DHT22;21192;40.182;44.516;2023-02-15T11:22:32;4.60;64.10
34989;DHT22;21192;40.182;44.516;2023-02-15T11:25:01;4.60;64.20
34989;DHT22;21192;40.182;44.516;2023-02-15T11:27:32;4.70;64.30
34989;DHT22;21192;40.182;44.516;2023-02-15T11:30:09;4.60;64.50
34989;DHT22;21192;40.182;44.516;2023-02-15T11:32:45;4.60;64.90
34989;DHT22;21192;40.182;44.516;2023-02-15T11:37:51;4.60;65.80
34989;DHT22;21192;40.182;44.516;2023-02-15T11:40:38;4.60;66.10
34989;DHT22;21192;40.182;44.516;2023-02-15T11:43:14;4.60;66.20
34989;DHT22;21192;40.182;44.516;2023-02-15T11:45:42;4.70;66.20
34989;DHT22;21192;40.182;44.516;2023-02-15T11:48:12;4.80;66.20
34989;DHT22;21192;40.182;44.516;2023-02-15T11:50:39;4.90;66.10
34989;DHT22;21192;40.182;44.516;2023-02-15T11:53:20;4.70;66.40
34989;DHT22;21192;40.182;44.516;2023-02-15T11:55:50;4.80;66.30
34989;DHT22;21192;40.182;44.516;2023-02-15T12:06:40;4.90;66.00
34989;DHT22;21192;40.182;44.516;2023-02-15T12:11:38;5.10;65.80
34989;DHT22;21192;40.182;44.516;2023-02-15T12:14:12;5.10;65.70
34989;DHT22;21192;40.182;44.516;2023-02-15T12:16:44;5.10;65.80
34989;DHT22;21192;40.182;44.516;2023-02-15T12:21:58;5.10;65.30
34989;DHT22;21192;40.182;44.516;2023-02-15T12:24:42;5.10;65.10
34989;DHT22;21192;40.182;44.516;2023-02-15T12:27:18;5.10;65.20
34989;DHT22;21192;40.182;44.516;2023-02-15T12:30:16;5.20;65.30
34989;DHT22;21192;40.182;44.516;2023-02-15T12:33:15;5.20;65.00
34989;DHT22;21192;40.182;44.516;2023-02-15T12:35:43;5.20;64.70
34989;DHT22;21192;40.182;44.516;2023-02-15T12:40:36;5.30;64.40
34989;DHT22;21192;40.182;44.516;2023-02-15T12:43:03;5.20;64.20
34989;DHT22;21192;40.182;44.516;2023-02-15T12:45:36;5.20;64.50
34989;DHT22;21192;40.182;44.516;2023-02-15T12:48:20;5.00;64.60
34989;DHT22;21192;40.182;44.516;2023-02-15T12:50:50;4.90;64.90
34989;DHT22;21192;40.182;44.516;2023-02-15T12:56:00;5.00;64.80
34989;DHT22;21192;40.182;44.516;2023-02-15T12:58:34;5.00;64.40
34989;DHT22;21192;40.182;44.516;2023-02-15T13:01:16;5.10;64.10
34989;DHT22;21192;40.182;44.516;2023-02-15T13:03:58;5.10;63.90
34989;DHT22;21192;40.182;44.516;2023-02-15T13:06:25;5.20;63.70
34989;DHT22;21192;40.182;44.516;2023-02-15T13:08:54;5.20;63.40
34989;DHT22;21192;40.182;44.516;2023-02-15T13:11:30;5.20;63.50
34989;DHT22;21192;40.182;44.516;2023-02-15T13:14:28;5.10;63.60
34989;DHT22;21192;40.182;44.516;2023-02-15T13:16:58;5.00;64.00
34989;DHT22;21192;40.182;44.516;2023-02-15T13:19:51;4.90;64.10
34989;DHT22;21192;40.182;44.516;2023-02-15T13:22:25;4.80;64.30
34989;DHT22;21192;40.182;44.516;2023-02-15T13:25:03;4.80;64.30
34989;DHT22;21192;40.182;44.516;2023-02-15T13:27:41;4.80;64.20
34989;DHT22;21192;40.182;44.516;2023-02-15T13:30:24;4.80;64.30
34989;DHT22;21192;40.182;44.516;2023-02-15T13:33:08;4.40;65.00
34989;DHT22;21192;40.182;44.516;2023-02-15T13:35:54;4.30;65.80
34989;DHT22;21192;40.182;44.516;2023-02-15T13:41:06;4.30;66.30
34989;DHT22;21192;40.182;44.516;2023-02-15T13:43:50;4.30;66.20
34989;DHT22;21192;40.182;44.516;2023-02-15T13:59:54;4.10;66.80
34989;DHT22;21192;40.182;44.516;2023-02-15T14:11:30;4.30;65.40
34989;DHT22;21192;40.182;44.516;2023-02-15T14:14:04;4.40;65.40
34989;DHT22;21192;40.182;44.516;2023-02-15T14:19:32;4.00;65.60
34989;DHT22;21192;40.182;44.516;2023-02-15T14:32:24;4.40;64.90
34989;DHT22;21192;40.182;44.516;2023-02-15T14:34:59;4.40;64.70
34989;DHT22;21192;40.182;44.516;2023-02-15T14:48:57;3.90;65.40
34989;DHT22;21192;40.182;44.516;2023-02-15T14:54:10;3.90;65.90
34989;DHT22;21192;40.182;44.516;2023-02-15T15:04:59;4.10;66.40
34989;DHT22;21192;40.182;44.516;2023-02-15T15:07:49;4.10;65.60
34989;DHT22;21192;40.182;44.516;2023-02-15T15:12:57;4.20;65.10
34989;DHT22;21192;40.182;44.516;2023-02-15T15:25:44;4.20;64.00
34989;DHT22;21192;40.182;44.516;2023-02-15T15:42:57;4.10;65.30
34989;DHT22;21192;40.182;44.516;2023-02-15T15:48:41;4.00;65.50
34989;DHT22;21192;40.182;44.516;2023-02-15T15:51:20;4.00;65.60
34989;DHT22;21192;40.182;44.516;2023-02-15T15:53:50;4.10;65.80
34989;DHT22;21192;40.182;44.516;2023-02-15T15:56:38;4.00;65.90
34989;DHT22;21192;40.182;44.516;2023-02-15T15:59:07;4.10;65.90
34989;DHT22;21192;40.182;44.516;2023-02-15T16:01:42;4.20;65.90
34989;DHT22;21192;40.182;44.516;2023-02-15T16:04:13;4.10;65.90
34989;DHT22;21192;40.182;44.516;2023-02-15T16:06:40;4.10;65.70
34989;DHT22;21192;40.182;44.516;2023-02-15T16:09:22;4.20;65.70
34989;DHT22;21192;40.182;44.516;2023-02-15T16:11:54;4.20;65.80
34989;DHT22;21192;40.182;44.516;2023-02-15T16:14:31;4.20;65.80
34989;DHT22;21192;40.182;44.516;2023-02-15T16:17:00;4.20;66.00
34989;DHT22;21192;40.182;44.516;2023-02-15T16:19:30;4.10;66.80
34989;DHT22;21192;40.182;44.516;2023-02-15T16:21:59;4.10;66.10
34989;DHT22;21192;40.182;44.516;2023-02-15T16:24:38;4.10;66.20
34989;DHT22;21192;40.182;44.516;2023-02-15T16:27:18;4.10;66.50
34989;DHT22;21192;40.182;44.516;2023-02-15T16:29:46;4.00;66.50
34989;DHT22;21192;40.182;44.516;2023-02-15T16:32:21;4.00;66.50
34989;DHT22;21192;40.182;44.516;2023-02-15T16:35:01;4.10;66.50
34989;DHT22;21192;40.182;44.516;2023-02-15T16:37:32;4.00;66.50
34989;DHT22;21192;40.182;44.516;2023-02-15T16:39:59;4.00;66.80
34989;DHT22;21192;40.182;44.516;2023-02-15T16:42:25;4.00;66.90
34989;DHT22;21192;40.182;44.516;2023-02-15T16:45:02;3.90;67.10
34989;DHT22;21192;40.182;44.516;2023-02-15T16:47:31;4.00;67.10
34989;DHT22;21192;40.182;44.516;2023-02-15T16:50:01;3.90;66.90
34989;DHT22;21192;40.182;44.516;2023-02-15T16:52:28;3.80;67.10
34989;DHT22;21192;40.182;44.516;2023-02-15T16:54:58;3.80;67.30
34989;DHT22;21192;40.182;44.516;2023-02-15T16:57:27;3.80;67.40
34989;DHT22;21192;40.182;44.516;2023-02-15T16:59:57;3.80;67.50
34989;DHT22;21192;40.182;44.516;2023-02-15T17:02:31;3.70;67.60
34989;DHT22;21192;40.182;44.516;2023-02-15T17:07:28;3.70;67.50
34989;DHT22;21192;40.182;44.516;2023-02-15T17:09:56;3.70;67.60
34989;DHT22;21192;40.182;44.516;2023-02-15T17:15:35;3.80;67.30
34989;DHT22;21192;40.182;44.516;2023-02-15T17:18:19;3.70;67.30
34989;DHT22;21192;40.182;44.516;2023-02-15T17:20:48;3.70;67.30
34989;DHT22;21192;40.182;44.516;2023-02-15T17:23:34;3.60;67.70
34989;DHT22;21192;40.182;44.516;2023-02-15T17:26:11;3.50;67.90
34989;DHT22;21192;40.182;44.516;2023-02-15T17:28:46;3.50;68.10
34989;DHT22;21192;40.182;44.516;2023-02-15T17:31:13;3.40;68.30
34989;DHT22;21192;40.182;44.516;2023-02-15T17:33:41;3.30;68.40
34989;DHT22;21192;40.182;44.516;2023-02-15T17:36:18;3.20;68.50
34989;DHT22;21192;40.182;44.516;2023-02-15T17:41:31;3.20;68.80
34989;DHT22;21192;40.182;44.516;2023-02-15T17:43:58;3.30;68.70
34989;DHT22;21192;40.182;44.516;2023-02-15T17:46:25;3.30;68.60
34989;DHT22;21192;40.182;44.516;2023-02-15T17:48:54;3.40;68.60
34989;DHT22;21192;40.182;44.516;2023-02-15T17:51:21;3.40;68.50
34989;DHT22;21192;40.182;44.516;2023-02-15T17:53:48;3.40;68.40
34989;DHT22;21192;40.182;44.516;2023-02-15T17:56:34;3.40;68.60
34989;DHT22;21192;40.182;44.516;2023-02-15T17:59:00;3.40;68.70
34989;DHT22;21192;40.182;44.516;2023-02-15T18:01:26;3.50;68.70
34989;DHT22;21192;40.182;44.516;2023-02-15T18:04:13;3.60;68.70
34989;DHT22;21192;40.182;44.516;2023-02-15T18:06:58;3.50;68.70
34989;DHT22;21192;40.182;44.516;2023-02-15T18:09:43;3.40;68.90
34989;DHT22;21192;40.182;44.516;2023-02-15T18:12:30;3.40;69.00
34989;DHT22;21192;40.182;44.516;2023-02-15T18:14:57;3.40;69.20
34989;DHT22;21192;40.182;44.516;2023-02-15T18:17:29;3.50;69.30
34989;DHT22;21192;40.182;44.516;2023-02-15T18:19:57;3.50;69.40
34989;DHT22;21192;40.182;44.516;2023-02-15T18:22:23;3.50;69.50
34989;DHT22;21192;40.182;44.516;2023-02-15T18:24:49;3.50;69.60
34989;DHT22;21192;40.182;44.516;2023-02-15T18:27:15;3.50;69.70
34989;DHT22;21192;40.182;44.516;2023-02-15T18:29:41;3.40;70.10
34989;DHT22;21192;40.182;44.516;2023-02-15T18:32:23;3.40;70.40
34989;DHT22;21192;40.182;44.516;2023-02-15T18:34:52;3.30;70.80
34989;DHT22;21192;40.182;44.516;2023-02-15T18:37:21;3.30;71.10
34989;DHT22;21192;40.182;44.516;2023-02-15T18:39:51;3.30;72.20
34989;DHT22;21192;40.182;44.516;2023-02-15T18:42:32;3.10;72.20
34989;DHT22;21192;40.182;44.516;2023-02-15T18:45:13;3.10;72.80
34989;DHT22;21192;40.182;44.516;2023-02-15T18:47:39;3.10;73.30
34989;DHT22;21192;40.182;44.516;2023-02-15T18:50:06;3.00;73.90
34989;DHT22;21192;40.182;44.516;2023-02-15T18:52:35;2.90;74.60
34989;DHT22;21192;40.182;44.516;2023-02-15T18:55:04;2.90;75.40
34989;DHT22;21192;40.182;44.516;2023-02-15T18:57:37;2.90;76.20
34989;DHT22;21192;40.182;44.516;2023-02-15T19:00:03;2.90;77.30
34989;DHT22;21192;40.182;44.516;2023-02-15T19:02:30;2.90;77.90
34989;DHT22;21192;40.182;44.516;2023-02-15T19:04:56;2.90;78.30
34989;DHT22;21192;40.182;44.516;2023-02-15T19:07:24;2.90;78.40
34989;DHT22;21192;40.182;44.516;2023-02-15T19:10:01;2.90;78.30
34989;DHT22;21192;40.182;44.516;2023-02-15T19:12:29;2.90;78.30
34989;DHT22;21192;40.182;44.516;2023-02-15T19:14:55;2.90;78.50
34989;DHT22;21192;40.182;44.516;2023-02-15T19:17:22;2.90;78.40
34989;DHT22;21192;40.182;44.516;2023-02-15T19:19:50;2.90;78.20
34989;DHT22;21192;40.182;44.516;2023-02-15T19:22:28;3.00;77.80
34989;DHT22;21192;40.182;44.516;2023-02-15T19:24:59;3.00;77.60
34989;DHT22;21192;40.182;44.516;2023-02-15T19:27:34;3.00;77.50
34989;DHT22;21192;40.182;44.516;2023-02-15T19:30:25;3.00;77.50
34989;DHT22;21192;40.182;44.516;2023-02-15T19:32:53;3.00;77.70
34989;DHT22;21192;40.182;44.516;2023-02-15T19:35:21;3.00;77.80
34989;DHT22;21192;40.182;44.516;2023-02-15T19:37:50;3.00;77.90
34989;DHT22;21192;40.182;44.516;2023-02-15T19:42:48;3.00;77.80
34989;DHT22;21192;40.182;44.516;2023-02-15T19:45:15;3.10;77.50
34989;DHT22;21192;40.182;44.516;2023-02-15T19:47:41;3.00;77.20
34989;DHT22;21192;40.182;44.516;2023-02-15T19:50:19;3.00;77.00
34989;DHT22;21192;40.182;44.516;2023-02-15T19:52:46;3.10;76.70
34989;DHT22;21192;40.182;44.516;2023-02-15T19:55:22;3.10;76.50
34989;DHT22;21192;40.182;44.516;2023-02-15T19:57:50;3.10;76.40
34989;DHT22;21192;40.182;44.516;2023-02-15T20:00:19;3.20;76.20
34989;DHT22;21192;40.182;44.516;2023-02-15T20:02:45;3.00;76.20
34989;DHT22;21192;40.182;44.516;2023-02-15T20:05:12;2.90;76.80
34989;DHT22;21192;40.182;44.516;2023-02-15T20:07:38;2.90;77.10
34989;DHT22;21192;40.182;44.516;2023-02-15T20:10:17;2.90;77.30
34989;DHT22;21192;40.182;44.516;2023-02-15T20:12:43;2.80;77.60
34989;DHT22;21192;40.182;44.516;2023-02-15T20:15:33;2.80;77.70
34989;DHT22;21192;40.182;44.516;2023-02-15T20:18:00;2.80;77.60
34989;DHT22;21192;40.182;44.516;2023-02-15T20:23:08;2.80;77.70
34989;DHT22;21192;40.182;44.516;2023-02-15T20:25:38;2.80;77.80
34989;DHT22;21192;40.182;44.516;2023-02-15T20:28:04;2.80;77.80
34989;DHT22;21192;40.182;44.516;2023-02-15T20:30:31;2.80;77.70
34989;DHT22;21192;40.182;44.516;2023-02-15T20:32:57;2.80;77.70
34989;DHT22;21192;40.182;44.516;2023-02-15T20:35:24;2.70;77.80
34989;DHT22;21192;40.182;44.516;2023-02-15T20:37:55;2.80;77.90
34989;DHT22;21192;40.182;44.516;2023-02-15T20:40:24;2.80;77.80